sensor_id;sensor_type;location;lat;lon;timestamp;pressure;altitude;pressure_sealevel;temperature;humidity
5679;BME280;2862;52.560;13.566;2023-04-09T00:09:00;101820.81;;;6.43;83.42
5679;BME280;2862;52.560;13.566;2023-04-09T00:19:06;101821.72;;;6.42;83.28
5679;BME280;2862;52.560;13.566;2023-04-09T00:29:08;101812.19;;;6.19;84.11
5679;BME280;2862;52.560;13.566;2023-04-09T00:39:13;101813.09;;;6.20;84.43
5679;BME280;2862;52.560;13.566;2023-04-09T00:49:20;101807.06;;;5.97;86.03
5679;BME280;2862;52.560;13.566;2023-04-09T00:59:27;101810.97;;;5.89;85.73
5679;BME280;2862;52.560;13.566;2023-04-09T01:09:34;101803.47;;;5.78;86.20
5679;BME280;2862;52.560;13.566;2023-04-09T01:19:44;101807.47;;;5.68;86.55
5679;BME280;2862;52.560;13.566;2023-04-09T01:29:53;101809.63;;;5.59;86.51
5679;BME280;2862;52.560;13.566;2023-04-09T01:39:56;101806.81;;;5.44;86.60
5679;BME280;2862;52.560;13.566;2023-04-09T01:50:03;101806.41;;;5.53;87.43
5679;BME280;2862;52.560;13.566;2023-04-09T02:00:07;101811.94;;;5.28;87.54
5679;BME280;2862;52.560;13.566;2023-04-09T02:10:19;101824.19;;;5.10;87.49
5679;BME280;2862;52.560;13.566;2023-04-09T02:20:25;101831.88;;;4.96;88.98
5679;BME280;2862;52.560;13.566;2023-04-09T02:30:29;101826.91;;;4.66;89.30
5679;BME280;2862;52.560;13.566;2023-04-09T02:40:33;101831.66;;;4.36;92.33
5679;BME280;2862;52.560;13.566;2023-04-09T02:50:37;101830.22;;;4.28;91.44
5679;BME280;2862;52.560;13.566;2023-04-09T03:00:41;101835.72;;;3.99;94.46
5679;BME280;2862;52.560;13.566;2023-04-09T03:10:45;101830.50;;;3.98;98.59
5679;BME280;2862;52.560;13.566;2023-04-09T03:20:49;101823.25;;;3.80;100.00
5679;BME280;2862;52.560;13.566;2023-04-09T03:30:54;101802.97;;;3.80;100.00
5679;BME280;2862;52.560;13.566;2023-04-09T03:40:57;101815.50;;;3.75;100.00
5679;BME280;2862;52.560;13.566;2023-04-09T03:51:02;101814.94;;;3.90;100.00
5679;BME280;2862;52.560;13.566;2023-04-09T04:01:12;101818.28;;;4.17;100.00
5679;BME280;2862;52.560;13.566;2023-04-09T04:11:28;101810.78;;;4.29;100.00
5679;BME280;2862;52.560;13.566;2023-04-09T04:21:31;101818.97;;;4.22;100.00
5679;BME280;2862;52.560;13.566;2023-04-09T04:31:37;101827.59;;;4.49;100.00
5679;BME280;2862;52.560;13.566;2023-04-09T04:41:40;101820.63;;;4.69;100.00
5679;BME280;2862;52.560;13.566;2023-04-09T04:51:53;101819.25;;;4.80;100.00
5679;BME280;2862;52.560;13.566;2023-04-09T05:01:57;101829.56;;;5.09;100.00
5679;BME280;2862;52.560;13.566;2023-04-09T05:12:05;101833.88;;;5.31;100.00
5679;BME280;2862;52.560;13.566;2023-04-09T05:22:09;101835.19;;;5.42;100.00
5679;BME280;2862;52.560;13.566;2023-04-09T05:32:14;101840.22;;;5.68;100.00
5679;BME280;2862;52.560;13.566;2023-04-09T05:42:18;101848.41;;;5.82;100.00
5679;BME280;2862;52.560;13.566;2023-04-09T05:52:31;101853.69;;;5.64;100.00
5679;BME280;2862;52.560;13.566;2023-04-09T06:02:36;101836.63;;;5.69;100.00
5679;BME280;2862;52.560;13.566;2023-04-09T06:12:41;101847.19;;;5.90;100.00
5679;BME280;2862;52.560;13.566;2023-04-09T06:22:44;101860.66;;;6.05;100.00
5679;BME280;2862;52.560;13.566;2023-04-09T06:32:49;101858.22;;;6.38;100.00
5679;BME280;2862;52.560;13.566;2023-04-09T06:42:54;101852.38;;;6.49;100.00
5679;BME280;2862;52.560;13.566;2023-04-09T06:53:04;101870.69;;;6.36;100.00
5679;BME280;2862;52.560;13.566;2023-04-09T07:03:07;101880.00;;;6.07;100.00
5679;BME280;2862;52.560;13.566;2023-04-09T07:13:12;101885.19;;;6.10;100.00
5679;BME280;2862;52.560;13.566;2023-04-09T07:23:14;101880.50;;;6.53;100.00
5679;BME280;2862;52.560;13.566;2023-04-09T07:33:19;101881.88;;;6.62;100.00
5679;BME280;2862;52.560;13.566;2023-04-09T07:43:22;101878.84;;;6.88;100.00
5679;BME280;2862;52.560;13.566;2023-04-09T07:53:26;101875.03;;;7.11;100.00
5679;BME280;2862;52.560;13.566;2023-04-09T08:03:29;101888.16;;;7.49;100.00
5679;BME280;2862;52.560;13.566;2023-04-09T08:13:33;101894.41;;;7.48;100.00
5679;BME280;2862;52.560;13.566;2023-04-09T08:23:36;101895.81;;;7.72;100.00
5679;BME280;2862;52.560;13.566;2023-04-09T08:33:41;101907.50;;;8.03;100.00
5679;BME280;2862;52.560;13.566;2023-04-09T08:43:45;101904.13;;;7.99;100.00
5679;BME280;2862;52.560;13.566;2023-04-09T08:53:56;101902.00;;;8.06;100.00
5679;BME280;2862;52.560;13.566;2023-04-09T09:04:01;101899.41;;;8.54;98.60
5679;BME280;2862;52.560;13.566;2023-04-09T09:14:06;101897.44;;;8.41;97.99
5679;BME280;2862;52.560;13.566;2023-04-09T09:24:16;101905.91;;;8.32;98.19
5679;BME280;2862;52.560;13.566;2023-04-09T09:34:24;101913.13;;;8.30;97.94
5679;BME280;2862;52.560;13.566;2023-04-09T09:44:31;101896.41;;;8.75;97.88
5679;BME280;2862;52.560;13.566;2023-04-09T09:54:39;101878.44;;;9.39;94.47
5679;BME280;2862;52.560;13.566;2023-04-09T10:04:43;101880.94;;;9.42;93.29
5679;BME280;2862;52.560;13.566;2023-04-09T10:14:48;101872.50;;;9.64;89.05
5679;BME280;2862;52.560;13.566;2023-04-09T10:24:53;101875.19;;;10.21;86.18
5679;BME280;2862;52.560;13.566;2023-04-09T10:34:57;101875.84;;;10.39;87.39
5679;BME280;2862;52.560;13.566;2023-04-09T10:45:06;101871.28;;;10.27;84.38
5679;BME280;2862;52.560;13.566;2023-04-09T10:55:29;101867.34;;;10.74;81.16
5679;BME280;2862;52.560;13.566;2023-04-09T11:05:33;101870.38;;;11.22;79.52
5679;BME280;2862;52.560;13.566;2023-04-09T11:15:40;101859.19;;;11.55;79.00
5679;BME280;2862;52.560;13.566;2023-04-09T11:25:47;101853.00;;;11.67;77.37
5679;BME280;2862;52.560;13.566;2023-04-09T11:35:52;101846.44;;;11.46;77.73
5679;BME280;2862;52.560;13.566;2023-04-09T11:45:56;101838.41;;;11.58;79.37
5679;BME280;2862;52.560;13.566;2023-04-09T11:56:03;101840.09;;;12.23;77.46
5679;BME280;2862;52.560;13.566;2023-04-09T12:06:07;101846.03;;;11.90;77.87
5679;BME280;2862;52.560;13.566;2023-04-09T12:16:12;101838.41;;;10.93;80.58
5679;BME280;2862;52.560;13.566;2023-04-09T12:26:15;101827.31;;;10.72;83.49
5679;BME280;2862;52.560;13.566;2023-04-09T12:36:19;101838.94;;;10.58;86.04
5679;BME280;2862;52.560;13.566;2023-04-09T12:46:24;101825.84;;;10.81;84.50
5679;BME280;2862;52.560;13.566;2023-04-09T12:56:29;101814.88;;;10.98;81.67
5679;BME280;2862;52.560;13.566;2023-04-09T13:06:32;101807.03;;;11.48;79.73
5679;BME280;2862;52.560;13.566;2023-04-09T13:16:37;101794.69;;;11.70;80.04
5679;BME280;2862;52.560;13.566;2023-04-09T13:26:40;101789.97;;;11.87;79.13
5679;BME280;2862;52.560;13.566;2023-04-09T13:36:44;101783.13;;;11.83;78.93
5679;BME280;2862;52.560;13.566;2023-04-09T13:46:47;101787.16;;;12.01;78.22
5679;BME280;2862;52.560;13.566;2023-04-09T13:56:52;101767.22;;;11.80;78.49
5679;BME280;2862;52.560;13.566;2023-04-09T14:06:55;101765.44;;;11.93;78.25
5679;BME280;2862;52.560;13.566;2023-04-09T14:17:00;101753.25;;;12.13;76.27
5679;BME280;2862;52.560;13.566;2023-04-09T14:27:03;101762.25;;;12.12;76.25
5679;BME280;2862;52.560;13.566;2023-04-09T14:37:08;101731.78;;;12.37;73.60
5679;BME280;2862;52.560;13.566;2023-04-09T14:47:11;101736.81;;;12.41;75.41
5679;BME280;2862;52.560;13.566;2023-04-09T14:57:16;101724.91;;;12.45;72.54
5679;BME280;2862;52.560;13.566;2023-04-09T15:07:19;101722.56;;;12.41;73.43
5679;BME280;2862;52.560;13.566;2023-04-09T15:17:24;101729.03;;;12.49;71.65
5679;BME280;2862;52.560;13.566;2023-04-09T15:27:28;101723.81;;;12.48;70.41
5679;BME280;2862;52.560;13.566;2023-04-09T15:37:32;101719.63;;;12.44;70.03
5679;BME280;2862;52.560;13.566;2023-04-09T15:47:43;101720.06;;;12.51;70.99
5679;BME280;2862;52.560;13.566;2023-04-09T15:57:50;101713.19;;;12.46;69.62
5679;BME280;2862;52.560;13.566;2023-04-09T16:07:53;101708.25;;;12.29;70.65
5679;BME280;2862;52.560;13.566;2023-04-09T16:17:59;101706.41;;;12.30;71.01
5679;BME280;2862;52.560;13.566;2023-04-09T16:28:02;101708.19;;;12.18;71.69
5679;BME280;2862;52.560;13.566;2023-04-09T16:38:07;101697.06;;;12.11;72.50
5679;BME280;2862;52.560;13.566;2023-04-09T16:48:13;101702.38;;;12.00;73.62
5679;BME280;2862;52.560;13.566;2023-04-09T16:58:17;101708.09;;;11.83;74.52
5679;BME280;2862;52.560;13.566;2023-04-09T17:08:22;101702.63;;;11.72;74.48
5679;BME280;2862;52.560;13.566;2023-04-09T17:18:26;101711.34;;;11.50;74.94
5679;BME280;2862;52.560;13.566;2023-04-09T17:28:29;101713.28;;;11.35;75.22
5679;BME280;2862;52.560;13.566;2023-04-09T17:38:33;101730.44;;;11.20;75.72
5679;BME280;2862;52.560;13.566;2023-04-09T17:48:37;101722.31;;;10.96;77.42
5679;BME280;2862;52.560;13.566;2023-04-09T17:58:41;101712.84;;;10.77;79.11
5679;BME280;2862;52.560;13.566;2023-04-09T18:08:44;101727.34;;;10.60;79.60
5679;BME280;2862;52.560;13.566;2023-04-09T18:18:48;101732.22;;;10.41;80.73
5679;BME280;2862;52.560;13.566;2023-04-09T18:28:52;101731.34;;;10.28;81.40
5679;BME280;2862;52.560;13.566;2023-04-09T18:38:58;101739.34;;;10.14;82.87
5679;BME280;2862;52.560;13.566;2023-04-09T18:49:02;101750.31;;;9.82;87.52
5679;BME280;2862;52.560;13.566;2023-04-09T18:59:07;101767.69;;;9.75;89.28
5679;BME280;2862;52.560;13.566;2023-04-09T19:09:15;101757.56;;;9.51;91.08
5679;BME280;2862;52.560;13.566;2023-04-09T19:19:19;101759.19;;;9.40;92.26
5679;BME280;2862;52.560;13.566;2023-04-09T19:29:22;101767.47;;;9.21;93.62
5679;BME280;2862;52.560;13.566;2023-04-09T19:39:26;101765.66;;;9.07;94.17
5679;BME280;2862;52.560;13.566;2023-04-09T19:49:29;101771.41;;;8.85;95.55
5679;BME280;2862;52.560;13.566;2023-04-09T19:59:34;101762.81;;;8.80;95.70
5679;BME280;2862;52.560;13.566;2023-04-09T20:09:40;101771.94;;;8.76;95.36
5679;BME280;2862;52.560;13.566;2023-04-09T20:19:46;101773.50;;;8.64;96.67
5679;BME280;2862;52.560;13.566;2023-04-09T20:29:48;101776.53;;;8.58;97.05
5679;BME280;2862;52.560;13.566;2023-04-09T20:39:54;101769.22;;;8.62;96.30
5679;BME280;2862;52.560;13.566;2023-04-09T20:49:59;101767.88;;;8.55;96.03
5679;BME280;2862;52.560;13.566;2023-04-09T21:00:05;101758.94;;;8.40;97.71
5679;BME280;2862;52.560;13.566;2023-04-09T21:10:09;101756.50;;;8.35;97.97
5679;BME280;2862;52.560;13.566;2023-04-09T21:20:14;101764.34;;;8.07;100.00
5679;BME280;2862;52.560;13.566;2023-04-09T21:30:17;101760.22;;;8.01;100.00
5679;BME280;2862;52.560;13.566;2023-04-09T21:40:22;101757.91;;;7.95;100.00
5679;BME280;2862;52.560;13.566;2023-04-09T21:50:25;101753.34;;;7.81;100.00
5679;BME280;2862;52.560;13.566;2023-04-09T22:00:30;101747.16;;;7.65;100.00
5679;BME280;2862;52.560;13.566;2023-04-09T22:10:35;101760.66;;;7.44;100.00
5679;BME280;2862;52.560;13.566;2023-04-09T22:20:39;101762.34;;;7.30;100.00
5679;BME280;2862;52.560;13.566;2023-04-09T22:30:42;101771.19;;;7.30;100.00
5679;BME280;2862;52.560;13.566;2023-04-09T22:40:47;101767.69;;;7.30;100.00
5679;BME280;2862;52.560;13.566;2023-04-09T22:50:50;101769.09;;;7.02;100.00
5679;BME280;2862;52.560;13.566;2023-04-09T23:00:55;101786.09;;;7.00;100.00
5679;BME280;2862;52.560;13.566;2023-04-09T23:10:58;101779.84;;;6.83;100.00
5679;BME280;2862;52.560;13.566;2023-04-09T23:21:03;101758.16;;;6.74;100.00
5679;BME280;2862;52.560;13.566;2023-04-09T23:31:07;101753.88;;;6.54;100.00
5679;BME280;2862;52.560;13.566;2023-04-09T23:41:11;101748.06;;;6.46;100.00
5679;BME280;2862;52.560;13.566;2023-04-09T23:51:18;101750.38;;;6.34;100.00
